CYXZ

Details ICAO CYXZ (YXZ)
Name WAWA
Region Canada
Timezone America/Toronto (UTC-4.0)
Plans Departing 14
Arriving 21
Stats Elevation 942 ft / 287 m (AMSL)
Location 47.966700° -84.786700°
Runways 1
Magnetic Variation 7.566° W
Sunrise 2019-05-23 09:53:06 UTC / 2019-05-23 05:53:06 Local
Sunset 2019-05-24 01:21:33 UTC / 2019-05-23 21:21:33 Local
Advertisement - Login to hide

Runways

ID Width Length Bearing (true/mag) Surface Threshold Overrun Markings Lighting
03 100 ft / 30 m 4,422 ft / 1,348 m 23.52° / 31.08° ASPHALT 0 ft / 0 m 0 ft / 0 m APP EDGE THRESHOLD REIL-OMNI
21 100 ft / 30 m 4,422 ft / 1,348 m 203.52° / 211.09° ASPHALT 689 ft / 210 m 0 ft / 0 m APP EDGE THRESHOLD REIL-OMNI

Map

Weather


0- 5 10 15 20 25 30 35+ Temperature / °C

Clouds and Precipitation
Forecast for 2019-05-23 18:00 UTC. Updated 3 hours ago

Ground ~20,000 ft ~40,000 ft Winds

METAR

CYXZ 231830Z 24006KT 220V290 1/2SM FG VV001 08/08 A2978 RMK FG8 SLP095

TAF

TAF AMD CYXZ 231819Z 2318/2324 22006KT 1SM BR VV003 TEMPO 2318/2322 6SM BR SCT003 OVC010 FM232200 24006KT 5SM -RA -DZ BR OVC010 TEMPO 2322/2324 P6SM NSW OVC025 BECMG 2322/2324 36005KT RMK NXT FCST BY 232000Z

Frequencies

Unicom 122.80 MHz CTAF/UNICOM
Warning: Do not use this data for real-world aviation or navigation. No guarantee of current accuracy is given.